Time,TemperatureF,DewpointF,PressureIn,WindDirection,WindDirectionDegrees,WindSpeedMPH,WindSpeedGustMPH,Humidity,HourlyPrecipIn,Conditions,Clouds,dailyrainin,SoftwareType,DateUTC
2013-02-14 00:00:00,68.9,67.1,29.91,SSW,209,0.0,0.0,94,0.00,,,0.00,Wunderground PWS Mod,2013-02-14 05:00:00,
2013-02-14 00:02:00,69.1,67.3,29.91,SSW,209,0.0,0.0,94,0.00,,,0.00,Wunderground PWS Mod,2013-02-14 05:02:00,
2013-02-14 00:04:00,69.1,67.3,29.91,SSW,209,0.0,0.0,94,0.00,,,0.00,Wunderground PWS Mod,2013-02-14 05:04:00,
2013-02-14 00:10:00,69.1,67.3,29.91,SSW,209,0.0,0.0,94,0.00,,,0.00,Wunderground PWS Mod,2013-02-14 05:10:00,
2013-02-14 00:16:00,69.3,67.8,29.91,SSW,209,0.0,0.0,95,0.00,,,0.00,Wunderground PWS Mod,2013-02-14 05:16:00,
2013-02-14 00:22:00,69.3,67.5,29.90,SSW,209,0.0,0.0,94,0.00,,,0.00,Wunderground PWS Mod,2013-02-14 05:22:00,
2013-02-14 00:28:00,69.3,67.5,29.90,SSW,209,0.0,0.0,94,0.00,,,0.00,Wunderground PWS Mod,2013-02-14 05:28:00,
2013-02-14 00:30:00,69.4,67.9,29.89,N/A,-737280,0.0,0.0,95,0.00,,,0.00,Wunderground PWS Mod,2013-02-14 05:30:00,
2013-02-14 00:34:00,69.3,67.5,29.89,SSW,209,0.0,0.0,94,0.00,,,0.00,Wunderground PWS Mod,2013-02-14 05:34:00,
2013-02-14 00:40:00,69.4,67.9,29.89,SSW,209,0.0,0.0,95,0.00,,,0.00,Wunderground PWS Mod,2013-02-14 05:40:00,
2013-02-14 00:46:00,69.4,67.9,29.89,SSW,209,0.0,0.0,95,0.00,,,0.00,Wunderground PWS Mod,2013-02-14 05:46:00,
2013-02-14 00:52:00,69.3,67.5,29.89,SSW,209,0.0,0.0,94,0.00,,,0.00,Wunderground PWS Mod,2013-02-14 05:52:00,
2013-02-14 00:56:00,69.2,67.7,29.89,N/A,-737280,0.0,0.0,95,0.00,,,0.00,Wunderground PWS Mod,2013-02-14 05:56:00,
2013-02-14 00:58:00,69.3,67.8,29.89,SSW,209,0.0,0.0,95,0.00,,,0.00,Wunderground PWS Mod,2013-02-14 05:58:00,
2013-02-14 01:04:00,69.3,67.8,29.89,SSW,209,0.0,0.0,95,0.00,,,0.00,Wunderground PWS Mod,2013-02-14 06:04:00,
2013-02-14 01:10:00,69.3,67.8,29.89,SSW,209,0.0,0.0,95,0.00,,,0.00,Wunderground PWS Mod,2013-02-14 06:10:00,
2013-02-14 01:16:00,69.3,67.8,29.89,SSW,209,0.0,0.0,95,0.00,,,0.00,Wunderground PWS Mod,2013-02-14 06:16:00,
2013-02-14 01:22:00,69.3,67.8,29.89,SSW,209,0.0,0.0,95,0.00,,,0.00,Wunderground PWS Mod,2013-02-14 06:22:00,
2013-02-14 01:28:00,69.3,67.8,29.89,SSW,209,0.0,0.0,95,0.00,,,0.00,Wunderground PWS Mod,2013-02-14 06:28:00,
2013-02-14 01:30:00,67.5,65.4,29.90,North,0,2.0,4.0,93,0.00,,,0.00,Wunderground PWS Mod,2013-02-14 06:30:00,
2013-02-14 01:34:00,69.8,68.3,29.90,North,9,0.0,3.0,95,0.00,,,0.00,Wunderground PWS Mod,2013-02-14 06:34:00,
2013-02-14 01:40:00,68.9,67.1,29.90,NNE,16,1.0,3.0,94,0.00,,,0.00,Wunderground PWS Mod,2013-02-14 06:40:00,
2013-02-14 01:46:00,68.1,66.0,29.90,North,5,1.0,4.0,93,0.00,,,0.00,Wunderground PWS Mod,2013-02-14 06:46:00,
2013-02-14 01:52:00,66.9,64.8,29.90,North,5,2.0,4.0,93,0.00,,,0.00,Wunderground PWS Mod,2013-02-14 06:52:00,
2013-02-14 01:58:00,66.3,63.9,29.90,North,5,1.0,3.0,92,0.00,,,0.00,Wunderground PWS Mod,2013-02-14 06:58:00,
2013-02-14 02:04:00,65.8,63.4,29.91,North,360,0.0,1.0,92,0.00,,,0.00,Wunderground PWS Mod,2013-02-14 07:04:00,
2013-02-14 02:10:00,65.3,62.6,29.91,North,360,0.0,3.0,91,0.00,,,0.00,Wunderground PWS Mod,2013-02-14 07:10:00,
2013-02-14 02:16:00,64.8,61.8,29.91,NNE,16,1.0,3.0,90,0.00,,,0.01,Wunderground PWS Mod,2013-02-14 07:16:00,
2013-02-14 02:18:00,63.4,60.4,29.91,NE,45,0.0,1.0,90,0.01,,,0.01,Wunderground PWS Mod,2013-02-14 07:18:00,
2013-02-14 02:22:00,64.3,61.3,29.91,NNE,16,1.0,4.0,90,0.00,,,0.01,Wunderground PWS Mod,2013-02-14 07:22:00,
2013-02-14 02:28:00,63.9,60.9,29.91,NNE,16,0.0,1.0,90,0.00,,,0.01,Wunderground PWS Mod,2013-02-14 07:28:00,
2013-02-14 02:34:00,63.5,60.5,29.91,NE,36,0.0,2.0,90,0.00,,,0.01,Wunderground PWS Mod,2013-02-14 07:34:00,
2013-02-14 02:40:00,63.2,60.2,29.91,East,99,0.0,2.0,90,0.00,,,0.01,Wunderground PWS Mod,2013-02-14 07:40:00,
2013-02-14 02:42:00,62.6,59.6,29.90,North,0,1.0,2.0,90,0.01,,,0.01,Wunderground PWS Mod,2013-02-14 07:42:00,
2013-02-14 02:46:00,63.1,60.1,29.91,North,9,0.0,3.0,90,0.00,,,0.01,Wunderground PWS Mod,2013-02-14 07:46:00,
2013-02-14 02:52:00,62.9,59.9,29.90,North,9,0.0,0.0,90,0.00,,,0.01,Wunderground PWS Mod,2013-02-14 07:52:00,
2013-02-14 02:58:00,62.7,59.7,29.90,NNE,17,0.0,1.0,90,0.00,,,0.01,Wunderground PWS Mod,2013-02-14 07:58:00,
2013-02-14 03:04:00,62.6,59.6,29.90,North,5,1.0,3.0,90,0.00,,,0.01,Wunderground PWS Mod,2013-02-14 08:04:00,
2013-02-14 03:08:00,62.1,59.1,29.91,North,0,1.0,2.0,90,0.00,,,0.01,Wunderground PWS Mod,2013-02-14 08:08:00,
2013-02-14 03:10:00,62.4,59.4,29.90,North,5,0.0,2.0,90,0.00,,,0.01,Wunderground PWS Mod,2013-02-14 08:10:00,
2013-02-14 03:16:00,62.3,59.3,29.90,North,5,0.0,0.0,90,0.00,,,0.01,Wunderground PWS Mod,2013-02-14 08:16:00,
2013-02-14 03:22:00,62.1,59.1,29.91,North,5,0.0,2.0,90,0.00,,,0.01,Wunderground PWS Mod,2013-02-14 08:22:00,
2013-02-14 03:28:00,62.1,59.1,29.91,North,5,0.0,2.0,90,0.00,,,0.01,Wunderground PWS Mod,2013-02-14 08:28:00,
2013-02-14 03:34:00,62.0,58.7,29.89,North,5,0.0,3.0,89,0.00,,,0.01,Wunderground PWS Mod,2013-02-14 08:34:00,
2013-02-14 03:40:00,62.0,58.7,29.89,North,5,1.0,1.0,89,0.00,,,0.01,Wunderground PWS Mod,2013-02-14 08:40:00,
2013-02-14 03:46:00,62.0,59.0,29.89,North,5,0.0,0.0,90,0.00,,,0.01,Wunderground PWS Mod,2013-02-14 08:46:00,
2013-02-14 03:52:00,61.8,58.8,29.89,North,5,0.0,0.0,90,0.00,,,0.02,Wunderground PWS Mod,2013-02-14 08:52:00,
2013-02-14 03:58:00,61.8,58.8,29.89,North,5,0.0,0.0,90,0.06,,,0.02,Wunderground PWS Mod,2013-02-14 08:58:00,
2013-02-14 04:04:00,61.6,58.6,29.90,North,5,0.0,0.0,90,0.57,,,0.04,Wunderground PWS Mod,2013-02-14 09:04:00,
2013-02-14 04:10:00,61.3,58.7,29.90,North,5,0.0,1.0,91,0.96,,,0.09,Wunderground PWS Mod,2013-02-14 09:10:00,
2013-02-14 04:16:00,61.0,58.7,29.90,North,5,0.0,2.0,92,1.95,,,0.18,Wunderground PWS Mod,2013-02-14 09:16:00,
2013-02-14 04:18:00,60.5,58.5,29.91,N/A,-737280,0.0,0.0,93,0.23,,,0.24,Wunderground PWS Mod,2013-02-14 09:18:00,
2013-02-14 04:22:00,60.9,58.6,29.91,North,10,1.0,3.0,92,0.26,,,0.24,Wunderground PWS Mod,2013-02-14 09:22:00,
2013-02-14 04:28:00,60.5,58.2,29.91,North,5,1.0,3.0,92,0.07,,,0.24,Wunderground PWS Mod,2013-02-14 09:28:00,
2013-02-14 04:34:00,60.5,58.5,29.91,North,5,1.0,2.0,93,0.04,,,0.24,Wunderground PWS Mod,2013-02-14 09:34:00,
2013-02-14 04:40:00,60.5,58.5,29.91,North,5,0.0,1.0,93,0.00,,,0.24,Wunderground PWS Mod,2013-02-14 09:40:00,
2013-02-14 04:46:00,60.5,58.5,29.91,North,5,0.0,0.0,93,0.00,,,0.24,Wunderground PWS Mod,2013-02-14 09:46:00,
2013-02-14 04:52:00,60.5,58.5,29.91,North,5,0.0,2.0,93,0.00,,,0.24,Wunderground PWS Mod,2013-02-14 09:52:00,
2013-02-14 04:58:00,60.5,58.5,29.91,North,5,0.0,1.0,93,0.00,,,0.24,Wunderground PWS Mod,2013-02-14 09:58:00,
2013-02-14 05:04:00,60.5,58.8,29.91,North,5,0.0,1.0,94,0.00,,,0.24,Wunderground PWS Mod,2013-02-14 10:04:00,
2013-02-14 05:06:00,60.9,59.2,29.91,North,0,1.0,3.0,94,0.00,,,0.24,Wunderground PWS Mod,2013-02-14 10:06:00,
2013-02-14 05:10:00,60.5,58.8,29.91,ENE,69,0.0,1.0,94,0.00,,,0.24,Wunderground PWS Mod,2013-02-14 10:10:00,
2013-02-14 05:16:00,60.7,59.0,29.91,NE,42,0.0,0.0,94,0.00,,,0.24,Wunderground PWS Mod,2013-02-14 10:16:00,
2013-02-14 05:22:00,60.7,59.0,29.91,NW,318,0.0,2.0,94,0.00,,,0.24,Wunderground PWS Mod,2013-02-14 10:22:00,
2013-02-14 05:28:00,60.9,59.2,29.91,NNW,332,1.0,3.0,94,0.00,,,0.24,Wunderground PWS Mod,2013-02-14 10:28:00,
2013-02-14 05:34:00,60.9,59.2,29.90,NNE,25,0.0,2.0,94,0.00,,,0.24,Wunderground PWS Mod,2013-02-14 10:34:00,
2013-02-14 05:40:00,60.9,59.2,29.90,NNE,25,0.0,1.0,94,0.00,,,0.24,Wunderground PWS Mod,2013-02-14 10:40:00,
2013-02-14 05:46:00,60.9,59.2,29.90,SE,135,0.0,4.0,94,0.00,,,0.24,Wunderground PWS Mod,2013-02-14 10:46:00,
2013-02-14 05:52:00,60.9,59.2,29.89,SE,134,0.0,1.0,94,0.00,,,0.24,Wunderground PWS Mod,2013-02-14 10:52:00,
2013-02-14 05:54:00,61.2,59.8,29.89,N/A,-737280,0.0,0.0,95,0.00,,,0.24,Wunderground PWS Mod,2013-02-14 10:54:00,
2013-02-14 05:58:00,61.0,59.6,29.89,SW,231,0.0,2.0,95,0.00,,,0.24,Wunderground PWS Mod,2013-02-14 10:58:00,
2013-02-14 06:04:00,61.0,59.6,29.89,SW,231,0.0,0.0,95,0.00,,,0.24,Wunderground PWS Mod,2013-02-14 11:04:00,
2013-02-14 06:10:00,61.0,59.6,29.89,SW,231,0.0,2.0,95,0.00,,,0.24,Wunderground PWS Mod,2013-02-14 11:10:00,
2013-02-14 06:16:00,61.2,59.8,29.89,SW,231,0.0,0.0,95,0.00,,,0.24,Wunderground PWS Mod,2013-02-14 11:16:00,
2013-02-14 06:20:00,61.3,59.9,29.90,N/A,-737280,0.0,0.0,95,0.00,,,0.24,Wunderground PWS Mod,2013-02-14 11:20:00,
2013-02-14 06:22:00,61.2,59.8,29.89,SSW,211,0.0,1.0,95,0.00,,,0.24,Wunderground PWS Mod,2013-02-14 11:22:00,
2013-02-14 06:28:00,61.2,59.8,29.89,SSW,211,0.0,1.0,95,0.00,,,0.24,Wunderground PWS Mod,2013-02-14 11:28:00,
2013-02-14 06:34:00,61.3,59.9,29.90,SSW,211,0.0,0.0,95,0.00,,,0.24,Wunderground PWS Mod,2013-02-14 11:34:00,
2013-02-14 06:40:00,61.3,59.9,29.90,SSW,211,0.0,0.0,95,0.00,,,0.24,Wunderground PWS Mod,2013-02-14 11:40:00,
2013-02-14 06:46:00,61.3,59.9,29.90,SSW,211,0.0,0.0,95,0.00,,,0.24,Wunderground PWS Mod,2013-02-14 11:46:00,
2013-02-14 06:52:00,61.3,59.9,29.91,SSW,211,0.0,0.0,95,0.00,,,0.24,Wunderground PWS Mod,2013-02-14 11:52:00,
2013-02-14 06:58:00,61.5,60.1,29.91,SSW,211,0.0,0.0,95,0.00,,,0.24,Wunderground PWS Mod,2013-02-14 11:58:00,
2013-02-14 07:04:00,61.5,60.1,29.91,SSW,211,0.0,0.0,95,0.00,,,0.24,Wunderground PWS Mod,2013-02-14 12:04:00,
2013-02-14 07:10:00,61.6,60.2,29.91,SSW,211,0.0,0.0,95,0.00,,,0.24,Wunderground PWS Mod,2013-02-14 12:10:00,
2013-02-14 07:16:00,61.6,60.2,29.91,SSW,211,0.0,0.0,95,0.00,,,0.24,Wunderground PWS Mod,2013-02-14 12:16:00,
2013-02-14 07:22:00,61.8,60.4,29.91,SSW,211,0.0,0.0,95,0.00,,,0.24,Wunderground PWS Mod,2013-02-14 12:22:00,
2013-02-14 07:28:00,61.8,60.4,29.91,SSW,211,0.0,0.0,95,0.00,,,0.24,Wunderground PWS Mod,2013-02-14 12:28:00,
2013-02-14 07:34:00,62.0,60.6,29.92,SSW,211,0.0,0.0,95,0.00,,,0.24,Wunderground PWS Mod,2013-02-14 12:34:00,
2013-02-14 07:40:00,62.1,60.7,29.92,SSW,211,0.0,0.0,95,0.00,,,0.24,Wunderground PWS Mod,2013-02-14 12:40:00,
2013-02-14 07:46:00,62.1,60.7,29.92,SSW,211,0.0,0.0,95,0.00,,,0.24,Wunderground PWS Mod,2013-02-14 12:46:00,
2013-02-14 07:52:00,62.3,60.8,29.93,SSW,211,0.0,0.0,95,0.00,,,0.24,Wunderground PWS Mod,2013-02-14 12:52:00,
2013-02-14 07:58:00,62.4,60.9,29.93,SSW,211,0.0,0.0,95,0.00,,,0.24,Wunderground PWS Mod,2013-02-14 12:58:00,
2013-02-14 08:04:00,62.6,61.1,29.94,SSW,211,0.0,0.0,95,0.00,,,0.24,Wunderground PWS Mod,2013-02-14 13:04:00,
2013-02-14 08:10:00,62.7,61.5,29.94,SSW,211,0.0,0.0,96,0.00,,,0.24,Wunderground PWS Mod,2013-02-14 13:10:00,
2013-02-14 08:16:00,62.7,61.2,29.94,SSW,211,0.0,1.0,95,0.00,,,0.24,Wunderground PWS Mod,2013-02-14 13:16:00,
2013-02-14 08:22:00,62.6,61.1,29.94,SSW,211,0.0,0.0,95,0.00,,,0.24,Wunderground PWS Mod,2013-02-14 13:22:00,
2013-02-14 08:28:00,62.6,61.1,29.94,SSW,211,0.0,0.0,95,0.00,,,0.24,Wunderground PWS Mod,2013-02-14 13:28:00,
2013-02-14 08:34:00,62.6,61.1,29.94,SSW,211,0.0,0.0,95,0.00,,,0.24,Wunderground PWS Mod,2013-02-14 13:34:00,
2013-02-14 08:38:00,62.8,61.6,29.94,N/A,-737280,0.0,0.0,96,0.00,,,0.24,Wunderground PWS Mod,2013-02-14 13:38:00,
2013-02-14 08:40:00,62.6,61.1,29.94,SSW,211,0.0,0.0,95,0.00,,,0.24,Wunderground PWS Mod,2013-02-14 13:40:00,
2013-02-14 08:46:00,62.7,61.2,29.94,SSW,211,0.0,0.0,95,0.00,,,0.24,Wunderground PWS Mod,2013-02-14 13:46:00,
2013-02-14 08:52:00,62.7,61.2,29.94,SSW,211,0.0,0.0,95,0.00,,,0.24,Wunderground PWS Mod,2013-02-14 13:52:00,
2013-02-14 08:58:00,62.9,61.7,29.94,SSW,212,0.0,0.0,96,0.00,,,0.24,Wunderground PWS Mod,2013-02-14 13:58:00,
2013-02-14 09:04:00,63.2,62.0,29.94,SSW,212,0.0,0.0,96,0.00,,,0.24,Wunderground PWS Mod,2013-02-14 14:04:00,
2013-02-14 09:06:00,64.3,63.1,29.93,N/A,-737280,0.0,0.0,96,0.00,,,0.24,Wunderground PWS Mod,2013-02-14 14:06:00,
2013-02-14 09:10:00,63.5,62.3,29.94,NNE,22,0.0,0.0,96,0.00,,,0.24,Wunderground PWS Mod,2013-02-14 14:10:00,
2013-02-14 09:16:00,64.0,62.8,29.94,SE,144,0.0,1.0,96,0.00,,,0.24,Wunderground PWS Mod,2013-02-14 14:16:00,
2013-02-14 09:22:00,64.2,63.0,29.93,NNE,17,0.0,2.0,96,0.00,,,0.24,Wunderground PWS Mod,2013-02-14 14:22:00,
2013-02-14 09:28:00,64.5,63.3,29.93,NNE,17,0.0,0.0,96,0.00,,,0.24,Wunderground PWS Mod,2013-02-14 14:28:00,
2013-02-14 09:34:00,64.8,63.6,29.94,NNE,17,0.0,0.0,96,0.00,,,0.24,Wunderground PWS Mod,2013-02-14 14:34:00,
2013-02-14 09:38:00,66.9,65.7,29.94,ESE,113,0.0,2.0,96,0.00,,,0.24,Wunderground PWS Mod,2013-02-14 14:38:00,
2013-02-14 09:40:00,65.2,64.0,29.94,NNE,17,0.0,0.0,96,0.00,,,0.24,Wunderground PWS Mod,2013-02-14 14:40:00,
2013-02-14 09:46:00,65.8,64.6,29.94,NNE,17,0.0,0.0,96,0.00,,,0.24,Wunderground PWS Mod,2013-02-14 14:46:00,
2013-02-14 09:52:00,66.4,65.2,29.94,NNE,17,0.0,0.0,96,0.00,,,0.24,Wunderground PWS Mod,2013-02-14 14:52:00,
2013-02-14 09:58:00,66.9,65.7,29.94,NE,53,0.0,2.0,96,0.00,,,0.24,Wunderground PWS Mod,2013-02-14 14:58:00,
2013-02-14 10:04:00,67.3,66.1,29.94,SE,142,0.0,3.0,96,0.00,,,0.24,Wunderground PWS Mod,2013-02-14 15:04:00,
2013-02-14 10:06:00,68.9,67.7,29.94,N/A,-737280,0.0,0.0,96,0.00,,,0.24,Wunderground PWS Mod,2013-02-14 15:06:00,
2013-02-14 10:10:00,67.9,66.7,29.94,ENE,59,0.0,0.0,96,0.00,,,0.24,Wunderground PWS Mod,2013-02-14 15:10:00,
2013-02-14 10:16:00,68.1,66.9,29.94,East,85,0.0,0.0,96,0.00,,,0.24,Wunderground PWS Mod,2013-02-14 15:16:00,
2013-02-14 10:22:00,68.6,67.4,29.94,ESE,113,0.0,6.0,96,0.00,,,0.24,Wunderground PWS Mod,2013-02-14 15:22:00,
2013-02-14 10:28:00,69.1,67.6,29.94,ESE,113,0.0,0.0,95,0.00,,,0.24,Wunderground PWS Mod,2013-02-14 15:28:00,
2013-02-14 10:34:00,69.6,68.1,29.94,SSE,161,0.0,0.0,95,0.00,,,0.24,Wunderground PWS Mod,2013-02-14 15:34:00,
2013-02-14 10:40:00,70.1,68.6,29.94,SSE,161,0.0,1.0,95,0.00,,,0.24,Wunderground PWS Mod,2013-02-14 15:40:00,
2013-02-14 10:46:00,70.4,68.9,29.94,SSE,161,0.0,1.0,95,0.00,,,0.24,Wunderground PWS Mod,2013-02-14 15:46:00,
2013-02-14 10:52:00,70.9,69.1,29.94,SSE,161,0.0,0.0,94,0.00,,,0.24,Wunderground PWS Mod,2013-02-14 15:52:00,
2013-02-14 10:58:00,71.1,69.3,29.94,SSE,161,0.0,0.0,94,0.00,,,0.24,Wunderground PWS Mod,2013-02-14 15:58:00,
2013-02-14 11:04:00,71.3,69.5,29.93,SSE,161,0.0,0.0,94,0.00,,,0.24,Wunderground PWS Mod,2013-02-14 16:04:00,
2013-02-14 11:10:00,71.8,70.0,29.93,SSE,161,0.0,0.0,94,0.00,,,0.24,Wunderground PWS Mod,2013-02-14 16:10:00,
2013-02-14 11:16:00,72.5,70.4,29.93,NE,47,0.0,2.0,93,0.00,,,0.24,Wunderground PWS Mod,2013-02-14 16:16:00,
2013-02-14 11:20:00,74.2,70.1,29.91,N/A,-737280,0.0,0.0,87,0.00,,,0.24,Wunderground PWS Mod,2013-02-14 16:20:00,
2013-02-14 11:22:00,73.2,70.4,29.92,South,171,0.0,2.0,91,0.00,,,0.24,Wunderground PWS Mod,2013-02-14 16:22:00,
2013-02-14 11:28:00,73.5,70.4,29.92,South,171,0.0,0.0,90,0.00,,,0.24,Wunderground PWS Mod,2013-02-14 16:28:00,
2013-02-14 11:34:00,74.2,70.7,29.91,South,171,0.0,0.0,89,0.00,,,0.24,Wunderground PWS Mod,2013-02-14 16:34:00,
2013-02-14 11:40:00,74.2,70.1,29.91,South,171,0.0,0.0,87,0.00,,,0.24,Wunderground PWS Mod,2013-02-14 16:40:00,
2013-02-14 11:46:00,74.4,69.6,29.91,South,171,0.0,0.0,85,0.00,,,0.24,Wunderground PWS Mod,2013-02-14 16:46:00,
2013-02-14 11:48:00,75.4,70.2,29.90,N/A,-737280,0.0,0.0,84,0.00,,,0.24,Wunderground PWS Mod,2013-02-14 16:48:00,
2013-02-14 11:52:00,74.7,69.5,29.91,South,171,0.0,0.0,84,0.00,,,0.24,Wunderground PWS Mod,2013-02-14 16:52:00,
2013-02-14 11:58:00,75.1,69.9,29.91,South,171,0.0,0.0,84,0.00,,,0.24,Wunderground PWS Mod,2013-02-14 16:58:00,
2013-02-14 12:04:00,75.4,70.2,29.90,South,171,0.0,0.0,84,0.00,,,0.24,Wunderground PWS Mod,2013-02-14 17:04:00,
2013-02-14 12:10:00,75.6,70.4,29.90,South,171,0.0,0.0,84,0.00,,,0.24,Wunderground PWS Mod,2013-02-14 17:10:00,
2013-02-14 12:16:00,75.6,70.4,29.90,South,171,0.0,0.0,84,0.00,,,0.24,Wunderground PWS Mod,2013-02-14 17:16:00,
2013-02-14 12:22:00,75.8,70.3,29.89,South,171,0.0,0.0,83,0.00,,,0.24,Wunderground PWS Mod,2013-02-14 17:22:00,
2013-02-14 12:28:00,76.1,70.9,29.89,South,171,0.0,0.0,84,0.00,,,0.24,Wunderground PWS Mod,2013-02-14 17:28:00,
2013-02-14 12:34:00,76.3,70.8,29.89,South,171,0.0,0.0,83,0.00,,,0.24,Wunderground PWS Mod,2013-02-14 17:34:00,
2013-02-14 12:40:00,76.5,70.2,29.89,South,171,0.0,0.0,81,0.00,,,0.24,Wunderground PWS Mod,2013-02-14 17:40:00,
2013-02-14 12:46:00,76.7,70.8,29.89,South,171,0.0,0.0,82,0.00,,,0.24,Wunderground PWS Mod,2013-02-14 17:46:00,
2013-02-14 12:52:00,76.5,70.6,29.88,South,171,0.0,0.0,82,0.00,,,0.24,Wunderground PWS Mod,2013-02-14 17:52:00,
2013-02-14 12:58:00,76.1,70.2,29.88,South,171,0.0,0.0,82,0.00,,,0.24,Wunderground PWS Mod,2013-02-14 17:58:00,
2013-02-14 13:04:00,76.3,70.4,29.87,South,171,0.0,0.0,82,0.00,,,0.24,Wunderground PWS Mod,2013-02-14 18:04:00,
2013-02-14 13:10:00,76.8,70.9,29.87,South,171,0.0,0.0,82,0.00,,,0.24,Wunderground PWS Mod,2013-02-14 18:10:00,
2013-02-14 13:16:00,77.6,70.9,29.87,SSW,211,0.0,1.0,80,0.00,,,0.24,Wunderground PWS Mod,2013-02-14 18:16:00,
2013-02-14 13:22:00,77.7,71.0,29.85,SSW,211,0.0,0.0,80,0.00,,,0.24,Wunderground PWS Mod,2013-02-14 18:22:00,
2013-02-14 13:28:00,78.1,71.4,29.85,SSW,211,0.0,0.0,80,0.00,,,0.24,Wunderground PWS Mod,2013-02-14 18:28:00,
2013-02-14 13:34:00,78.8,71.4,29.85,WSW,237,0.0,5.0,78,0.00,,,0.24,Wunderground PWS Mod,2013-02-14 18:34:00,
2013-02-14 13:38:00,78.1,71.1,29.84,SSW,203,0.0,1.0,79,0.00,,,0.24,Wunderground PWS Mod,2013-02-14 18:38:00,
2013-02-14 13:40:00,78.6,70.8,29.85,West,275,1.0,3.0,77,0.00,,,0.24,Wunderground PWS Mod,2013-02-14 18:40:00,
2013-02-14 13:46:00,78.5,70.7,29.85,South,190,1.0,2.0,77,0.00,,,0.24,Wunderground PWS Mod,2013-02-14 18:46:00,
2013-02-14 13:52:00,78.1,71.1,29.84,SSW,203,1.0,5.0,79,0.00,,,0.24,Wunderground PWS Mod,2013-02-14 18:52:00,
2013-02-14 13:58:00,78.1,71.1,29.84,SSW,203,1.0,1.0,79,0.00,,,0.24,Wunderground PWS Mod,2013-02-14 18:58:00,
2013-02-14 14:04:00,77.9,72.0,29.83,South,171,1.0,5.0,82,0.00,,,0.24,Wunderground PWS Mod,2013-02-14 19:04:00,
2013-02-14 14:08:00,77.6,72.0,29.83,South,180,2.0,5.0,83,0.00,,,0.24,Wunderground PWS Mod,2013-02-14 19:08:00,
2013-02-14 14:10:00,77.7,72.1,29.83,South,177,1.0,1.0,83,0.00,,,0.24,Wunderground PWS Mod,2013-02-14 19:10:00,
2013-02-14 14:16:00,77.6,72.0,29.83,South,184,0.0,2.0,83,0.00,,,0.24,Wunderground PWS Mod,2013-02-14 19:16:00,
2013-02-14 14:22:00,77.6,72.0,29.84,SW,231,1.0,6.0,83,0.00,,,0.24,Wunderground PWS Mod,2013-02-14 19:22:00,
2013-02-14 14:28:00,77.6,72.0,29.84,South,180,1.0,5.0,83,0.00,,,0.24,Wunderground PWS Mod,2013-02-14 19:28:00,
2013-02-14 14:34:00,77.4,71.8,29.83,South,187,1.0,4.0,83,0.00,,,0.24,Wunderground PWS Mod,2013-02-14 19:34:00,
2013-02-14 14:38:00,76.8,71.2,29.83,West,270,2.0,5.0,83,0.00,,,0.24,Wunderground PWS Mod,2013-02-14 19:38:00,
2013-02-14 14:40:00,77.6,72.4,29.83,South,187,0.0,2.0,84,0.00,,,0.24,Wunderground PWS Mod,2013-02-14 19:40:00,
2013-02-14 14:46:00,77.4,71.8,29.83,SSW,205,1.0,6.0,83,0.00,,,0.24,Wunderground PWS Mod,2013-02-14 19:46:00,
2013-02-14 14:52:00,77.2,71.6,29.83,SSW,205,1.0,1.0,83,0.00,,,0.24,Wunderground PWS Mod,2013-02-14 19:52:00,
2013-02-14 14:58:00,76.8,71.2,29.83,SW,231,1.0,5.0,83,0.00,,,0.24,Wunderground PWS Mod,2013-02-14 19:58:00,
2013-02-14 15:04:00,76.5,70.9,29.82,SW,228,1.0,3.0,83,0.00,,,0.24,Wunderground PWS Mod,2013-02-14 20:04:00,
2013-02-14 15:06:00,75.7,71.2,29.83,N/A,-737280,0.0,0.0,86,0.00,,,0.24,Wunderground PWS Mod,2013-02-14 20:06:00,
2013-02-14 15:10:00,76.3,70.8,29.82,SW,228,0.0,0.0,83,0.00,,,0.24,Wunderground PWS Mod,2013-02-14 20:10:00,
2013-02-14 15:16:00,76.0,70.8,29.82,SW,228,0.0,1.0,84,0.00,,,0.24,Wunderground PWS Mod,2013-02-14 20:16:00,
2013-02-14 15:22:00,75.8,71.3,29.83,SW,228,0.0,0.0,86,0.00,,,0.24,Wunderground PWS Mod,2013-02-14 20:22:00,
2013-02-14 15:28:00,75.6,71.5,29.83,SW,228,0.0,0.0,87,0.00,,,0.24,Wunderground PWS Mod,2013-02-14 20:28:00,
2013-02-14 15:34:00,75.3,71.2,29.83,SW,228,0.0,0.0,87,0.00,,,0.24,Wunderground PWS Mod,2013-02-14 20:34:00,
2013-02-14 15:38:00,73.5,68.7,29.84,WNW,293,1.0,2.0,85,0.00,,,0.24,Wunderground PWS Mod,2013-02-14 20:38:00,
2013-02-14 15:40:00,75.1,71.3,29.83,SW,228,0.0,2.0,88,0.00,,,0.24,Wunderground PWS Mod,2013-02-14 20:40:00,
2013-02-14 15:46:00,74.9,71.1,29.83,SSE,161,0.0,2.0,88,0.00,,,0.24,Wunderground PWS Mod,2013-02-14 20:46:00,
2013-02-14 15:52:00,74.7,71.6,29.84,NW,315,1.0,3.0,90,0.00,,,0.24,Wunderground PWS Mod,2013-02-14 20:52:00,
2013-02-14 15:58:00,72.8,68.0,29.84,NW,318,1.0,3.0,85,0.00,,,0.24,Wunderground PWS Mod,2013-02-14 20:58:00,
2013-02-14 16:04:00,69.8,65.8,29.89,NW,305,2.0,3.0,87,0.00,,,0.24,Wunderground PWS Mod,2013-02-14 21:04:00,
2013-02-14 16:10:00,67.9,63.9,29.89,NW,319,2.0,3.0,87,0.00,,,0.24,Wunderground PWS Mod,2013-02-14 21:10:00,
2013-02-14 16:16:00,66.8,63.5,29.89,NNW,338,1.0,3.0,89,0.00,,,0.24,Wunderground PWS Mod,2013-02-14 21:16:00,
2013-02-14 16:22:00,66.1,63.1,29.90,North,5,1.0,4.0,90,0.00,,,0.24,Wunderground PWS Mod,2013-02-14 21:22:00,
2013-02-14 16:28:00,65.6,62.6,29.90,North,5,1.0,3.0,90,0.00,,,0.24,Wunderground PWS Mod,2013-02-14 21:28:00,
2013-02-14 16:34:00,65.2,62.5,29.91,WNW,302,1.0,4.0,91,0.00,,,0.24,Wunderground PWS Mod,2013-02-14 21:34:00,
2013-02-14 16:40:00,64.7,62.0,29.91,NNE,19,2.0,3.0,91,0.00,,,0.24,Wunderground PWS Mod,2013-02-14 21:40:00,
2013-02-14 16:42:00,63.9,61.5,29.91,North,0,0.0,1.0,92,0.00,,,0.24,Wunderground PWS Mod,2013-02-14 21:42:00,
2013-02-14 16:46:00,64.3,61.9,29.91,North,5,1.0,4.0,92,0.00,,,0.24,Wunderground PWS Mod,2013-02-14 21:46:00,
2013-02-14 16:52:00,64.0,61.6,29.91,North,9,1.0,3.0,92,0.00,,,0.24,Wunderground PWS Mod,2013-02-14 21:52:00,
2013-02-14 16:58:00,63.9,61.5,29.91,NNE,27,2.0,5.0,92,0.00,,,0.24,Wunderground PWS Mod,2013-02-14 21:58:00,
2013-02-14 17:04:00,63.7,61.3,29.91,North,5,1.0,2.0,92,0.00,,,0.24,Wunderground PWS Mod,2013-02-14 22:04:00,
2013-02-14 17:08:00,63.2,61.1,29.92,North,0,1.0,4.0,93,0.00,,,0.24,Wunderground PWS Mod,2013-02-14 22:08:00,
2013-02-14 17:10:00,63.5,61.4,29.91,WNW,300,0.0,4.0,93,0.00,,,0.24,Wunderground PWS Mod,2013-02-14 22:10:00,
2013-02-14 17:16:00,63.4,61.3,29.91,NNW,329,1.0,4.0,93,0.00,,,0.24,Wunderground PWS Mod,2013-02-14 22:16:00,
2013-02-14 17:22:00,63.2,61.1,29.92,NNW,339,2.0,4.0,93,0.00,,,0.24,Wunderground PWS Mod,2013-02-14 22:22:00,
2013-02-14 17:28:00,63.2,61.1,29.92,North,355,1.0,4.0,93,0.00,,,0.24,Wunderground PWS Mod,2013-02-14 22:28:00,
2013-02-14 17:34:00,63.1,61.0,29.92,North,5,2.0,8.0,93,0.00,,,0.24,Wunderground PWS Mod,2013-02-14 22:34:00,
2013-02-14 17:40:00,63.1,61.0,29.92,North,11,2.0,5.0,93,0.00,,,0.24,Wunderground PWS Mod,2013-02-14 22:40:00,
2013-02-14 17:46:00,62.9,60.8,29.92,NNE,12,2.0,4.0,93,0.00,,,0.24,Wunderground PWS Mod,2013-02-14 22:46:00,
2013-02-14 17:52:00,62.9,60.8,29.91,North,351,1.0,4.0,93,0.00,,,0.24,Wunderground PWS Mod,2013-02-14 22:52:00,
2013-02-14 17:58:00,62.9,60.8,29.91,North,360,1.0,3.0,93,0.00,,,0.24,Wunderground PWS Mod,2013-02-14 22:58:00,
2013-02-14 18:04:00,62.7,60.6,29.92,North,360,0.0,2.0,93,0.00,,,0.24,Wunderground PWS Mod,2013-02-14 23:04:00,
2013-02-14 18:10:00,62.6,60.5,29.92,North,355,1.0,6.0,93,0.00,,,0.24,Wunderground PWS Mod,2013-02-14 23:10:00,
2013-02-14 18:16:00,62.6,60.5,29.92,North,5,1.0,4.0,93,0.00,,,0.24,Wunderground PWS Mod,2013-02-14 23:16:00,
2013-02-14 18:22:00,62.4,60.3,29.92,NNE,20,1.0,3.0,93,0.00,,,0.24,Wunderground PWS Mod,2013-02-14 23:22:00,
2013-02-14 18:28:00,62.1,60.1,29.92,NNE,17,1.0,3.0,93,0.00,,,0.24,Wunderground PWS Mod,2013-02-14 23:28:00,
2013-02-14 18:30:00,61.6,59.6,29.94,NNE,23,2.0,3.0,93,0.00,,,0.24,Wunderground PWS Mod,2013-02-14 23:30:00,
2013-02-14 18:34:00,62.1,60.1,29.94,NNE,13,1.0,2.0,93,0.00,,,0.24,Wunderground PWS Mod,2013-02-14 23:34:00,
2013-02-14 18:40:00,62.0,60.0,29.94,NNE,12,1.0,5.0,93,0.00,,,0.24,Wunderground PWS Mod,2013-02-14 23:40:00,
2013-02-14 18:46:00,61.6,59.6,29.94,North,5,2.0,5.0,93,0.00,,,0.24,Wunderground PWS Mod,2013-02-14 23:46:00,
2013-02-14 18:52:00,61.5,59.5,29.94,WNW,294,2.0,4.0,93,0.00,,,0.24,Wunderground PWS Mod,2013-02-14 23:52:00,
2013-02-14 18:58:00,61.3,59.3,29.94,North,9,2.0,4.0,93,0.00,,,0.24,Wunderground PWS Mod,2013-02-14 23:58:00,
2013-02-14 19:04:00,61.0,59.0,29.96,North,9,2.0,5.0,93,0.00,,,0.24,Wunderground PWS Mod,2013-02-15 00:04:00,
2013-02-14 19:08:00,60.4,58.7,29.97,North,0,1.0,3.0,94,0.00,,,0.24,Wunderground PWS Mod,2013-02-15 00:08:00,
2013-02-14 19:10:00,60.7,58.7,29.96,NNE,14,2.0,7.0,93,0.00,,,0.24,Wunderground PWS Mod,2013-02-15 00:10:00,
2013-02-14 19:16:00,60.5,58.5,29.96,North,355,2.0,5.0,93,0.00,,,0.24,Wunderground PWS Mod,2013-02-15 00:16:00,
2013-02-14 19:22:00,60.4,58.7,29.97,North,9,1.0,3.0,94,0.00,,,0.24,Wunderground PWS Mod,2013-02-15 00:22:00,
2013-02-14 19:28:00,60.4,58.7,29.97,NE,38,1.0,3.0,94,0.00,,,0.24,Wunderground PWS Mod,2013-02-15 00:28:00,
2013-02-14 19:34:00,60.2,58.5,29.97,North,5,1.0,5.0,94,0.00,,,0.24,Wunderground PWS Mod,2013-02-15 00:34:00,
2013-02-14 19:40:00,60.2,58.5,29.97,NNE,30,1.0,2.0,94,0.00,,,0.24,Wunderground PWS Mod,2013-02-15 00:40:00,
2013-02-14 19:46:00,60.1,58.4,29.97,NNW,348,1.0,4.0,94,0.00,,,0.24,Wunderground PWS Mod,2013-02-15 00:46:00,
2013-02-14 19:52:00,60.1,58.4,29.95,North,9,1.0,3.0,94,0.00,,,0.24,Wunderground PWS Mod,2013-02-15 00:52:00,
2013-02-14 19:54:00,60.2,58.8,29.95,N/A,-737280,0.0,0.0,95,0.00,,,0.24,Wunderground PWS Mod,2013-02-15 00:54:00,
2013-02-14 19:58:00,60.1,58.4,29.95,North,351,1.0,3.0,94,0.00,,,0.24,Wunderground PWS Mod,2013-02-15 00:58:00,
2013-02-14 20:04:00,60.1,58.4,29.95,North,360,0.0,2.0,94,0.00,,,0.24,Wunderground PWS Mod,2013-02-15 01:04:00,
2013-02-14 20:10:00,60.1,58.7,29.95,North,5,1.0,3.0,95,0.00,,,0.24,Wunderground PWS Mod,2013-02-15 01:10:00,
2013-02-14 20:16:00,60.2,58.8,29.95,NNE,19,1.0,2.0,95,0.00,,,0.24,Wunderground PWS Mod,2013-02-15 01:16:00,
2013-02-14 20:20:00,59.6,57.9,29.97,North,0,1.0,4.0,94,0.00,,,0.24,Wunderground PWS Mod,2013-02-15 01:20:00,
2013-02-14 20:22:00,60.1,58.4,29.96,NNE,15,1.0,4.0,94,0.00,,,0.24,Wunderground PWS Mod,2013-02-15 01:22:00,
2013-02-14 20:28:00,59.9,58.2,29.96,North,11,1.0,6.0,94,0.00,,,0.24,Wunderground PWS Mod,2013-02-15 01:28:00,
2013-02-14 20:34:00,59.8,58.1,29.97,NNE,17,1.0,4.0,94,0.00,,,0.24,Wunderground PWS Mod,2013-02-15 01:34:00,
2013-02-14 20:40:00,59.6,57.9,29.97,North,360,1.0,4.0,94,0.00,,,0.24,Wunderground PWS Mod,2013-02-15 01:40:00,
2013-02-14 20:42:00,59.3,57.6,29.98,NNE,23,1.0,2.0,94,0.00,,,0.24,Wunderground PWS Mod,2013-02-15 01:42:00,
2013-02-14 20:46:00,59.5,57.8,29.97,NNW,337,1.0,5.0,94,0.00,,,0.24,Wunderground PWS Mod,2013-02-15 01:46:00,
2013-02-14 20:52:00,59.3,57.6,29.98,NNE,21,1.0,3.0,94,0.00,,,0.24,Wunderground PWS Mod,2013-02-15 01:52:00,
2013-02-14 20:58:00,59.3,57.6,29.98,North,10,1.0,3.0,94,0.00,,,0.24,Wunderground PWS Mod,2013-02-15 01:58:00,
2013-02-14 21:04:00,59.3,57.6,29.97,NNE,19,1.0,3.0,94,0.00,,,0.24,Wunderground PWS Mod,2013-02-15 02:04:00,
2013-02-14 21:10:00,59.3,57.6,29.97,North,355,1.0,2.0,94,0.00,,,0.24,Wunderground PWS Mod,2013-02-15 02:10:00,
2013-02-14 21:16:00,59.3,57.6,29.97,NE,38,1.0,2.0,94,0.00,,,0.24,Wunderground PWS Mod,2013-02-15 02:16:00,
2013-02-14 21:18:00,59.3,57.6,29.95,N/A,-737280,0.0,0.0,94,0.00,,,0.24,Wunderground PWS Mod,2013-02-15 02:18:00,
2013-02-14 21:22:00,59.3,57.6,29.97,East,84,0.0,1.0,94,0.00,,,0.24,Wunderground PWS Mod,2013-02-15 02:22:00,
2013-02-14 21:28:00,59.3,57.6,29.97,NNE,13,0.0,2.0,94,0.00,,,0.24,Wunderground PWS Mod,2013-02-15 02:28:00,
2013-02-14 21:34:00,59.3,57.6,29.95,NNE,13,0.0,3.0,94,0.00,,,0.24,Wunderground PWS Mod,2013-02-15 02:34:00,
2013-02-14 21:40:00,59.3,57.6,29.95,NNE,28,0.0,0.0,94,0.00,,,0.24,Wunderground PWS Mod,2013-02-15 02:40:00,
2013-02-14 21:46:00,59.3,57.6,29.95,NNE,28,0.0,0.0,94,0.00,,,0.24,Wunderground PWS Mod,2013-02-15 02:46:00,
2013-02-14 21:52:00,59.2,57.5,29.97,NNE,28,0.0,0.0,94,0.00,,,0.24,Wunderground PWS Mod,2013-02-15 02:52:00,
2013-02-14 21:58:00,59.2,57.8,29.97,ENE,71,0.0,2.0,95,0.00,,,0.24,Wunderground PWS Mod,2013-02-15 02:58:00,
2013-02-14 22:04:00,59.2,57.8,29.97,East,94,0.0,2.0,95,0.00,,,0.24,Wunderground PWS Mod,2013-02-15 03:04:00,
2013-02-14 22:10:00,59.2,57.8,29.97,North,360,0.0,2.0,95,0.00,,,0.24,Wunderground PWS Mod,2013-02-15 03:10:00,
2013-02-14 22:16:00,59.2,57.5,29.97,North,355,0.0,2.0,94,0.00,,,0.24,Wunderground PWS Mod,2013-02-15 03:16:00,
2013-02-14 22:18:00,59.3,57.6,29.98,N/A,-737280,0.0,0.0,94,0.00,,,0.24,Wunderground PWS Mod,2013-02-15 03:18:00,
2013-02-14 22:22:00,59.2,57.8,29.97,North,355,0.0,2.0,95,0.00,,,0.24,Wunderground PWS Mod,2013-02-15 03:22:00,
2013-02-14 22:28:00,59.3,57.6,29.97,NE,34,0.0,3.0,94,0.00,,,0.24,Wunderground PWS Mod,2013-02-15 03:28:00,
2013-02-14 22:34:00,59.3,57.6,29.98,NE,34,0.0,1.0,94,0.00,,,0.24,Wunderground PWS Mod,2013-02-15 03:34:00,
2013-02-14 22:40:00,59.3,57.9,29.98,NE,34,0.0,0.0,95,0.00,,,0.24,Wunderground PWS Mod,2013-02-15 03:40:00,
2013-02-14 22:42:00,59.3,57.6,29.98,N/A,-737280,0.0,0.0,94,0.00,,,0.24,Wunderground PWS Mod,2013-02-15 03:42:00,
2013-02-14 22:46:00,59.3,57.6,29.98,NE,34,0.0,2.0,94,0.00,,,0.24,Wunderground PWS Mod,2013-02-15 03:46:00,
2013-02-14 22:52:00,59.3,57.6,29.98,NE,34,0.0,2.0,94,0.00,,,0.24,Wunderground PWS Mod,2013-02-15 03:52:00,
2013-02-14 22:58:00,59.3,57.6,29.98,NNE,20,0.0,0.0,94,0.00,,,0.24,Wunderground PWS Mod,2013-02-15 03:58:00,
2013-02-14 23:04:00,59.3,57.6,29.97,NNE,20,0.0,1.0,94,0.00,,,0.24,Wunderground PWS Mod,2013-02-15 04:04:00,
2013-02-14 23:10:00,59.3,57.6,29.97,NNE,20,0.0,0.0,94,0.00,,,0.24,Wunderground PWS Mod,2013-02-15 04:10:00,
2013-02-14 23:12:00,59.3,57.6,29.97,N/A,-737280,0.0,0.0,94,0.00,,,0.24,Wunderground PWS Mod,2013-02-15 04:12:00,
2013-02-14 23:16:00,59.2,57.5,29.97,NNE,20,0.0,0.0,94,0.00,,,0.24,Wunderground PWS Mod,2013-02-15 04:16:00,
2013-02-14 23:22:00,59.3,57.6,29.97,NNE,15,0.0,1.0,94,0.00,,,0.24,Wunderground PWS Mod,2013-02-15 04:22:00,
2013-02-14 23:28:00,59.3,57.6,29.97,NNE,15,0.0,2.0,94,0.00,,,0.24,Wunderground PWS Mod,2013-02-15 04:28:00,
2013-02-14 23:34:00,59.3,57.6,29.98,NNE,15,0.0,0.0,94,0.00,,,0.24,Wunderground PWS Mod,2013-02-15 04:34:00,
2013-02-14 23:40:00,59.3,57.6,29.98,NNE,15,0.0,0.0,94,0.00,,,0.24,Wunderground PWS Mod,2013-02-15 04:40:00,
2013-02-14 23:46:00,59.5,57.8,29.98,NNE,15,0.0,0.0,94,0.00,,,0.24,Wunderground PWS Mod,2013-02-15 04:46:00,
2013-02-14 23:52:00,59.5,57.8,29.97,NNE,15,0.0,0.0,94,0.00,,,0.24,Wunderground PWS Mod,2013-02-15 04:52:00,
2013-02-14 23:58:00,59.5,57.8,29.97,NNE,15,0.0,0.0,94,0.00,,,0.24,Wunderground PWS Mod,2013-02-15 04:58:00,